Fisk, MO (63940)

6:30 AM CDT on July 25, 2014 (GMT -0500)
Poplar Bluff Municipal (KPOF) Elev 328 ft | 36.77 °N, 90.32 °W | Change Station

Current weather conditions updated 37 minutes ago

Clear
Clear
58 °F
Feels Like 58 °F
N
0
Wind Variable Wind from North

Today is forecast to be Warmer than yesterday.

Today
High -- | Low -- °F
--% Chance of Precip.
Yesterday
High -- | Low -- °F
Precip. -- in
6:00 AM 8:13 PM
Waning Crescent, 2% visible
Pressure 30.04 in
Visibility 5.0 miles
Clouds Clear
Dew Point 56 °F
Humidity 93%
Rainfall 0.00 in
Snow Depth Not available.
UV 0 out of 12
Pollen 6.40 out of 12
Air Quality Not available.
Flu Activity Not available.
METAR KPOF 251053Z AUTO 00000KT 5SM BR CLR 14/13 A3005 RMK AO2 SLP173 T01440133

More Conditions Fewer Conditions

Pressure 30.04 in
Visibility 5.0 miles
Clouds Clear
Dew Point 56 °F
Humidity 93%
Rainfall 0.00 in
Snow Depth Not available.
UV 0 out of 12
Pollen 6.40 out of 12
Air Quality Not available.
Flu Activity Not available.
METAR KPOF 251053Z AUTO 00000KT 5SM BR CLR 14/13 A3005 RMK AO2 SLP173 T01440133

More Conditions Fewer Conditions

10-Day Weather Forecast

Almanac

Astronomy

Jul. 25, 2014 Rise Set
Actual Time 6:00 AM CDT 8:13 PM CDT
Civil Twilight 5:31 AM CDT 8:42 PM CDT
Nautical Twilight 4:56 AM CDT 9:18 PM CDT
Astronomical Twilight 4:17 AM CDT 9:56 PM CDT
Moon 4:59 AM CDT 7:11 PM CDT
Length of Visible Light 15h 10m
Length of Day
14h 12m
Tomorrow will be 1m 34s shorter.
Waning Crescent, 2% of the Moon is Illuminated
Today
Waning Crescent
Jul 26
New
Aug 3
First Quarter
Aug 10
Full
Aug 17
Last Quarter

Today's Extremes

State Highs State Lows

Community

WunderPhotos

Upload Photos

1,737,289 photos uploaded!

Nearby

Snow Depth

Station Depth Elevation
No new snow has been reported.

Earthquake Activity

City Distance Mag. Time & Date
No recent earthquake activity has been reported nearby.
Minimum magnitude displayed is 2.5.

Coastal Water Temperatures

Place Temperature
No Stations Reporting

Nearby Weather Stations

Station Location Temp. Dew Point Humidity Wind Precip. Elev Updated Type
MesoWest JUNLND , Fisk, MO 57 °F - - North  at  - 0.00 in / hr 329 ft 5:20 AM CDT MADIS
Inman Acres, Poplar Bluff, MO 59.8 °F 59 °F 97% NNE  at  1.0 mph 0.00 in / hr 341 ft 6:27 AM CDT Normal
Peaceful Acres, Poplar Bluff, MO 58.7 °F 58 °F 98% NNE  at  0.0 mph 0.00 in / hr 338 ft 6:30 AM CDT Rapid Fire
Dexterweather.com, Dexter, MO 62.0 °F 60 °F 92% North  at  0.0 mph 0.00 in / hr 420 ft 6:30 AM CDT Rapid Fire
MesoWest BERNIE , Dexter, MO 67 °F - - North  at  - 0.00 in / hr 311 ft 4:55 AM CDT MADIS
MesoWest DEXTER , Dexter, MO 58 °F 57 °F 97% North  at  0 mph 0.00 in / hr 305 ft 5:00 AM CDT MADIS
Poplar Bluff 7 NW, Poplar Bluff, MO 57.1 °F 54 °F 91% NW  at  0.0 mph 0.00 in / hr 449 ft 6:30 AM CDT Rapid Fire

Show More Stations Show Fewer Stations